Etusivu
METAR-TAF:

METAR-TAF

Lentoasemat :

Riadin lentotukikohta

Riad, Saudi-Arabia

Leveyspiiri: 24-43N, Pituuspiiri: 046-44E, korkeus merenpinnasta: 635 m

METAR: puuttuu

Aika: 15:29 (12:29 UTC)

Sääennuste

Tämä raportti tehtiin 1 tunti ja 29 minuuttia sitten, kello 11.00 UTC
Ennuste voimassa 19. päivästä klo 12 UTC - 20. päivään klo 18 UTC
Tuuli 12 kn idästä/koillisesta
Näkyvyys: 7000 m
Muutamia pilviä 4000 ft:n korkeudessa
Hajanaisia pilviä 8000 ft:n korkeudessa
Todennäköisyys 30% :
Ajoittain
19. päivästä klo 12 UTC - 19. päivään klo 18 UTC
Tuuli 20 kn eri suunnista
Näkyvyys: 3000 m
Muutamia pilviä 3500 ft:n korkeudessa, Cumulonimbus.
pölymyrsky, ukkosmyrsky, sadetta
Tulossa
19. päivästä klo 20 UTC - 19. päivään klo 22 UTC
Tuuli 3 kn eri suunnista

TAF: OERY 191100Z 1912/2018 06012KT 7000 FEW040 SCT080 PROB30 TEMPO 1912/1918 VRB20KT 3000 BLDU TSRA FEW035CB BECMG 1920/1922 VRB03KT

Säähavainnot ja -ennusteet yli 4000 lentoasemalta (METAR- ja TAF-raportit).

Käytössä olevat sääasemat on merkitty karttaan keltaisilla ja punaisilla pisteillä.

Aseta hiiri pisteen päälle nähdäksesi sääaseman nimen.

Klikkaa sitten nähdäksesi säähavainnot ja -ennusteet.

Kartan vaihtaminen: klikkaa mustalla rastilla varustettuja vihreitä pisteitä, niin voit zoomata sisään; viivalla varustettua vihreää pistettä, niin voit zoomata ulos tai vihreitä nuolia, niin pääset viereisille kartoille.


METAR-TAF: